Aeroporto :
LOGIN :

Iscrizione | Disclaimer

   EN    FR    IT 

 










Sommario :    VFR   VFR Marginale   IFR   IFR Intensivo   IFR Molto Intensivo
Visibilità : 
Base nubi : 
>= 8 km
>= 3000ft
5 / 8 km
1000 / 3000 ft
1500m / 5 km
500 / 1000 ft
800 / 1500m
200 / 500 ft
< 800m
< 200 ft
Simboli :   Temporali  Nebbia  Neve Forte  Precipitazioni Forti  Vento > 20 kt
SIGMETs :   Varie  Temporali  Ghiacco  Turbolenza  Onda orograficha  Ceneri Vulcaniche






- Altitudine del aeroporto : 1535 ft
- Codice IATA : OUD


GMFO - Ouja Angads

ULTIMO METAR :
  • 191930Z 33006KT 9999 SCT020 BKN033 13/11 Q1026 NOSIG

METARs OBSOLETI :
  • 191900Z 33008KT 9999 BKN022/// BKN026/// OVC037/// 13/11 Q1026 NOSIG
  • 191830Z 34011KT 8000 SCT023/// BKN033/// 13/11 Q1026 NOSIG
  • 191800Z 33011KT 8000 SCT023 BKN033 14/11 Q1026 NOSIG
  • 191730Z 33012KT 9999 SCT026 BKN036 14/11 Q1026 NOSIG
  • 191700Z 34013KT 9999 BKN032/// 14/11 Q1025 NOSIG

TAF TAF GMFO
Valido dal 19 a 18 ore il 21 a 00 ore UTC


191700Z 1918/2024 33006KT 8000 SCT020 BKN050
PROB40
TEMPO 1921/2006 800 FG BKN006



MetMap, La meteo Aeronautica in un colpo d'occhio ! - Copyright ORBIFLY Dicembre 2007 - Disclaimer

ORBIFLY MET'MAP TEAM :

Programmazione e sviluppo : Alexandra Zaïnal
Concezione : Baudouin d'Aumeries
Aiuto per la programmazione : Marc-Olivier Méhu
Supporto tecnico e logistico : Manuel Goepfert
Aiuto per la traduzione : Arnaldo La Scala

Contatto : metmap@orbifly.com




FONTI E CREDITI :

   NOAA